Time;durP1;ratioP1;P1;durP2;ratioP2;P2;SDS_P1;SDS_P2;PMS_P1;PMS_P2;Temp;Humidity;BMP_temperature;BMP_pressure;BME280_temperature;BME280_humidity;BME280_pressure;Samples;Min_cycle;Max_cycle;Signal;HPM_P1;HPM_P2
2023/07/02 00:01:23;;;;;;;10.05;7.40;;;15.20;99.90;;;;;;5048800;28;20037;-64
2023/07/02 00:03:49;;;;;;;11.98;7.28;;;15.20;99.90;;;;;;5032263;28;20198;-64
2023/07/02 00:06:17;;;;;;;9.88;7.20;;;15.10;99.90;;;;;;5032212;28;20083;-64
2023/07/02 00:08:43;;;;;;;13.32;7.80;;;15.10;99.90;;;;;;5032317;28;20133;-64
2023/07/02 00:11:12;;;;;;;10.07;7.35;;;15.10;99.90;;;;;;5050726;28;20683;-64
2023/07/02 00:13:39;;;;;;;10.52;7.40;;;15.10;99.90;;;;;;5052976;28;20053;-64
2023/07/02 00:16:05;;;;;;;12.45;8.10;;;15.00;99.90;;;;;;5053756;28;20033;-64
2023/07/02 00:18:33;;;;;;;9.75;7.55;;;15.00;99.90;;;;;;5035909;28;20503;-64
2023/07/02 00:21:02;;;;;;;10.18;7.13;;;14.90;99.90;;;;;;5036032;28;20045;-64
2023/07/02 00:23:29;;;;;;;12.02;7.35;;;14.90;99.90;;;;;;5036064;28;20049;-64
2023/07/02 00:25:56;;;;;;;11.32;7.32;;;14.90;99.90;;;;;;5053686;28;20049;-64
2023/07/02 00:28:21;;;;;;;13.60;7.47;;;14.90;99.90;;;;;;5035648;28;20048;-64
2023/07/02 00:30:47;;;;;;;14.30;8.20;;;14.90;99.90;;;;;;5053618;28;20053;-64
2023/07/02 00:33:13;;;;;;;8.27;6.95;;;14.90;99.90;;;;;;5035896;28;20057;-65
2023/07/02 00:35:39;;;;;;;11.93;7.93;;;14.90;99.90;;;;;;5035432;28;20514;-64
2023/07/02 00:38:04;;;;;;;11.55;7.90;;;14.90;99.90;;;;;;5053009;28;20057;-65
2023/07/02 00:40:30;;;;;;;11.15;7.15;;;14.90;99.90;;;;;;5053658;28;20044;-65
2023/07/02 00:42:56;;;;;;;10.23;7.38;;;14.90;99.90;;;;;;5052116;28;20055;-64
2023/07/02 00:45:26;;;;;;;9.48;6.82;;;14.90;99.90;;;;;;5053483;28;20045;-65
2023/07/02 00:47:54;;;;;;;12.40;8.25;;;14.80;99.90;;;;;;5052141;28;20498;-64
2023/07/02 00:50:22;;;;;;;12.38;7.85;;;14.80;99.90;;;;;;5053239;28;20486;-64
2023/07/02 00:52:48;;;;;;;9.85;7.10;;;14.80;99.90;;;;;;5035585;28;20041;-64
2023/07/02 00:55:14;;;;;;;10.90;6.75;;;14.80;99.90;;;;;;5053311;28;20652;-64
2023/07/02 00:57:40;;;;;;;10.10;6.63;;;14.80;99.90;;;;;;5051940;28;20079;-64
2023/07/02 01:00:07;;;;;;;10.80;7.13;;;14.70;99.90;;;;;;5053017;28;20041;-64
2023/07/02 01:02:33;;;;;;;9.70;7.00;;;14.70;99.90;;;;;;5051881;28;20487;-64
2023/07/02 01:04:59;;;;;;;10.43;7.00;;;14.70;99.90;;;;;;5052896;28;20048;-64
2023/07/02 01:07:25;;;;;;;9.13;6.88;;;14.60;99.90;;;;;;5051647;28;20041;-64
2023/07/02 01:09:51;;;;;;;15.43;7.80;;;14.70;99.90;;;;;;5053002;28;20041;-64
2023/07/02 01:12:18;;;;;;;10.50;6.85;;;14.60;99.90;;;;;;5051913;28;20187;-64
2023/07/02 01:14:51;;;;;;;12.45;7.45;;;14.60;99.90;;;;;;5052739;28;20033;-64
2023/07/02 01:17:19;;;;;;;9.88;7.15;;;14.60;99.90;;;;;;5051577;28;20049;-64
2023/07/02 01:19:51;;;;;;;12.18;7.68;;;14.60;99.90;;;;;;5051487;28;20072;-65
2023/07/02 01:22:18;;;;;;;14.30;7.03;;;14.60;99.90;;;;;;5050950;28;20071;-64
2023/07/02 01:24:46;;;;;;;12.05;6.53;;;14.50;99.90;;;;;;5052716;28;20066;-64
2023/07/02 01:27:11;;;;;;;14.07;6.97;;;14.50;99.90;;;;;;5052478;28;20513;-64
2023/07/02 01:29:37;;;;;;;10.10;7.13;;;14.50;99.90;;;;;;5051002;28;20091;-64
2023/07/02 01:32:04;;;;;;;14.98;7.57;;;14.40;99.90;;;;;;5052558;28;20299;-64
2023/07/02 01:34:29;;;;;;;10.95;7.28;;;14.40;99.90;;;;;;5052257;28;20041;-64
2023/07/02 01:36:55;;;;;;;11.27;7.40;;;14.40;99.90;;;;;;5034492;28;20033;-64
2023/07/02 01:39:21;;;;;;;13.02;7.30;;;14.40;99.90;;;;;;5071038;28;20040;-64
2023/07/02 01:42:07;;;;;;;11.32;6.45;;;14.30;99.90;;;;;;5054445;28;20110;-64
2023/07/02 01:44:32;;;;;;;18.13;7.78;;;14.30;99.90;;;;;;5072318;28;20048;-64
2023/07/02 01:46:58;;;;;;;12.95;6.57;;;14.20;99.90;;;;;;5072005;28;20132;-64
2023/07/02 01:49:24;;;;;;;11.68;6.93;;;14.20;99.90;;;;;;5054626;28;20616;-64
2023/07/02 01:51:51;;;;;;;17.98;7.00;;;14.20;99.90;;;;;;5054036;28;20047;-64
2023/07/02 01:54:18;;;;;;;15.93;7.72;;;14.10;99.90;;;;;;5054211;28;20510;-64
2023/07/02 01:56:44;;;;;;;17.65;7.38;;;14.10;99.90;;;;;;5072010;28;20052;-64
2023/07/02 01:59:10;;;;;;;14.07;8.10;;;14.00;99.90;;;;;;5053965;28;20090;-64
2023/07/02 02:01:40;;;;;;;16.23;7.85;;;14.00;99.90;;;;;;5037155;28;20513;-64
2023/07/02 02:04:06;;;;;;;16.90;8.00;;;14.00;99.90;;;;;;5072140;28;20098;-64
2023/07/02 02:06:32;;;;;;;15.68;7.97;;;14.00;99.90;;;;;;5072035;28;20051;-64
2023/07/02 02:08:58;;;;;;;16.30;7.30;;;14.00;99.90;;;;;;5071802;28;20040;-64
2023/07/02 02:11:24;;;;;;;15.18;6.93;;;13.90;99.90;;;;;;5053950;28;20094;-64
2023/07/02 02:13:50;;;;;;;12.48;7.55;;;13.80;99.90;;;;;;5037268;28;20494;-64
2023/07/02 02:16:16;;;;;;;13.73;7.97;;;13.80;99.90;;;;;;5036910;28;20131;-64
2023/07/02 02:18:41;;;;;;;19.67;7.28;;;13.80;99.90;;;;;;5053690;28;20049;-64
2023/07/02 02:21:07;;;;;;;15.13;8.05;;;13.70;99.90;;;;;;5053881;28;20044;-64
2023/07/02 02:23:33;;;;;;;19.40;8.43;;;13.70;99.90;;;;;;5053715;28;20488;-64
2023/07/02 02:25:59;;;;;;;16.45;7.63;;;13.70;99.90;;;;;;5053496;28;20047;-64
2023/07/02 02:28:24;;;;;;;13.15;7.30;;;13.60;99.90;;;;;;5053016;28;20047;-64
2023/07/02 02:30:50;;;;;;;19.02;7.88;;;13.60;99.90;;;;;;5053490;28;20044;-64
2023/07/02 02:33:16;;;;;;;20.63;7.25;;;13.60;99.90;;;;;;5070876;28;20048;-64
2023/07/02 02:35:42;;;;;;;16.73;7.88;;;13.50;99.90;;;;;;5069655;28;20041;-64
2023/07/02 02:38:08;;;;;;;14.73;7.32;;;13.50;99.90;;;;;;5016710;28;20490;-64
2023/07/02 02:40:34;;;;;;;15.15;7.38;;;13.50;99.90;;;;;;5033341;28;20041;-64
2023/07/02 02:43:00;;;;;;;21.63;7.95;;;13.40;99.90;;;;;;5033212;28;20037;-65
2023/07/02 02:45:26;;;;;;;21.92;7.88;;;13.40;99.90;;;;;;5033275;28;20159;-64
2023/07/02 02:47:52;;;;;;;16.45;7.15;;;13.40;99.90;;;;;;5033019;28;20049;-64
2023/07/02 02:50:17;;;;;;;17.08;7.40;;;13.40;99.90;;;;;;5051083;28;20111;-64
2023/07/02 02:52:43;;;;;;;16.73;7.72;;;13.30;99.90;;;;;;5050791;28;20501;-64
2023/07/02 02:55:10;;;;;;;16.73;7.53;;;13.30;99.90;;;;;;5051015;28;20045;-64
2023/07/02 02:57:36;;;;;;;19.55;7.72;;;13.30;99.90;;;;;;5050380;28;20124;-65
2023/07/02 03:00:04;;;;;;;16.88;7.63;;;13.20;99.90;;;;;;5050738;28;20052;-64
2023/07/02 03:02:30;;;;;;;24.77;8.85;;;13.20;99.90;;;;;;5032814;28;20130;-64
2023/07/02 03:04:56;;;;;;;27.38;8.02;;;13.20;99.90;;;;;;5033162;28;20083;-64
2023/07/02 03:07:22;;;;;;;19.92;8.00;;;13.10;99.90;;;;;;5050479;28;20040;-64
2023/07/02 03:09:48;;;;;;;22.13;8.13;;;13.10;99.90;;;;;;5050588;28;20048;-64
2023/07/02 03:12:14;;;;;;;17.55;8.00;;;13.10;99.90;;;;;;5050220;28;20062;-64
2023/07/02 03:14:40;;;;;;;19.88;8.90;;;13.10;99.90;;;;;;5032344;28;20419;-64
2023/07/02 03:17:05;;;;;;;22.05;7.72;;;13.00;99.90;;;;;;5050244;28;20044;-64
2023/07/02 03:19:31;;;;;;;24.80;8.90;;;13.00;99.90;;;;;;5049343;28;20048;-65
2023/07/02 03:21:57;;;;;;;29.20;8.70;;;12.90;99.90;;;;;;5032557;28;20076;-64
2023/07/02 03:24:22;;;;;;;18.63;8.13;;;12.90;99.90;;;;;;5032329;28;20486;-64
2023/07/02 03:26:48;;;;;;;24.05;8.90;;;12.90;99.90;;;;;;5032294;28;20041;-64
2023/07/02 03:29:15;;;;;;;21.80;8.70;;;12.90;99.90;;;;;;5049679;28;20037;-64
2023/07/02 03:31:41;;;;;;;20.05;8.07;;;12.90;99.90;;;;;;5050336;28;20037;-65
2023/07/02 03:34:09;;;;;;;20.35;9.20;;;12.90;99.90;;;;;;5032663;28;20385;-64
2023/07/02 03:36:36;;;;;;;22.05;8.40;;;12.90;99.90;;;;;;5031800;28;20083;-64
2023/07/02 03:39:01;;;;;;;21.42;8.55;;;12.90;99.90;;;;;;5045993;28;20464;-65
2023/07/02 03:41:28;;;;;;;22.42;9.30;;;12.80;99.90;;;;;;5070148;28;20040;-64
2023/07/02 03:43:54;;;;;;;19.63;7.70;;;12.80;99.90;;;;;;5051893;28;20101;-65
2023/07/02 03:46:20;;;;;;;23.73;8.73;;;12.80;99.90;;;;;;5051839;28;20044;-64
2023/07/02 03:48:45;;;;;;;37.92;9.93;;;12.80;99.90;;;;;;5035262;28;20044;-64
2023/07/02 03:51:14;;;;;;;23.52;8.77;;;12.80;99.90;;;;;;5070324;28;20044;-65
2023/07/02 03:53:43;;;;;;;26.05;9.35;;;12.80;99.90;;;;;;5036195;28;20044;-64
2023/07/02 03:56:09;;;;;;;20.80;8.63;;;12.80;99.90;;;;;;5052048;28;20048;-64
2023/07/02 03:58:35;;;;;;;22.92;9.43;;;12.80;99.90;;;;;;5051867;28;20055;-64
2023/07/02 04:01:01;;;;;;;23.60;9.30;;;12.80;99.90;;;;;;5052239;28;20489;-64
2023/07/02 04:03:26;;;;;;;32.42;9.07;;;12.80;99.90;;;;;;5070090;28;20095;-64
2023/07/02 04:05:52;;;;;;;17.55;9.48;;;12.80;99.90;;;;;;5070160;28;20090;-64
2023/07/02 04:08:20;;;;;;;22.88;9.32;;;12.80;99.90;;;;;;5051955;28;20052;-65
2023/07/02 04:10:46;;;;;;;27.08;9.13;;;12.80;99.90;;;;;;5035285;28;20508;-64
2023/07/02 04:13:12;;;;;;;20.63;9.60;;;12.80;99.90;;;;;;5051850;28;20037;-64
2023/07/02 04:15:38;;;;;;;21.38;8.90;;;12.80;99.90;;;;;;5018956;28;20110;-64
2023/07/02 04:18:04;;;;;;;21.17;8.60;;;12.80;99.90;;;;;;5035442;28;20081;-65
2023/07/02 04:20:29;;;;;;;28.42;9.73;;;12.80;99.90;;;;;;5035361;28;20501;-64
2023/07/02 04:22:55;;;;;;;23.75;9.02;;;12.80;99.90;;;;;;5069884;28;20045;-64
2023/07/02 04:25:21;;;;;;;22.92;9.13;;;12.80;99.90;;;;;;5069769;28;20098;-64
2023/07/02 04:27:47;;;;;;;23.73;8.82;;;12.90;99.90;;;;;;5051797;28;20121;-64
2023/07/02 04:30:14;;;;;;;21.63;9.55;;;12.90;99.90;;;;;;5069946;28;20490;-64
2023/07/02 04:32:40;;;;;;;22.98;8.55;;;12.90;99.90;;;;;;5069997;28;20040;-64
2023/07/02 04:35:09;;;;;;;27.30;9.75;;;12.90;99.90;;;;;;5051522;28;20497;-65
2023/07/02 04:37:35;;;;;;;26.15;9.13;;;12.90;99.90;;;;;;5049639;28;20072;-64
2023/07/02 04:40:05;;;;;;;24.63;9.35;;;12.90;99.90;;;;;;5049486;28;20045;-65
2023/07/02 04:42:33;;;;;;;27.77;9.88;;;13.00;99.90;;;;;;5048368;28;20490;-65
2023/07/02 04:45:02;;;;;;;27.90;9.82;;;13.00;99.90;;;;;;5048609;28;20410;-64
2023/07/02 04:47:29;;;;;;;23.98;9.10;;;13.00;99.90;;;;;;5064648;28;20049;-64
2023/07/02 04:49:55;;;;;;;21.23;8.32;;;13.10;99.90;;;;;;5048610;28;20076;-65
2023/07/02 04:52:20;;;;;;;25.08;10.18;;;13.20;99.90;;;;;;5049569;28;20091;-64
2023/07/02 04:54:46;;;;;;;25.80;9.48;;;13.30;99.90;;;;;;5031760;28;20191;-65
2023/07/02 04:57:13;;;;;;;22.35;9.57;;;13.40;99.90;;;;;;5050458;28;20037;-65
2023/07/02 04:59:39;;;;;;;24.42;8.57;;;13.40;99.90;;;;;;5052876;28;20448;-64
2023/07/02 05:02:05;;;;;;;26.00;9.82;;;13.50;99.90;;;;;;5052102;28;20040;-65
2023/07/02 05:04:30;;;;;;;23.52;8.88;;;13.60;99.90;;;;;;5051669;28;20394;-64
2023/07/02 05:06:56;;;;;;;23.33;8.73;;;13.60;99.90;;;;;;5051826;28;20049;-65
2023/07/02 05:09:22;;;;;;;26.40;9.38;;;13.60;99.90;;;;;;5052888;28;20399;-65
2023/07/02 05:11:47;;;;;;;26.67;9.80;;;13.60;99.90;;;;;;5051635;28;20037;-65
2023/07/02 05:14:13;;;;;;;27.00;9.15;;;13.60;99.90;;;;;;5051792;28;20045;-65
2023/07/02 05:16:39;;;;;;;32.92;9.70;;;13.60;99.90;;;;;;5051425;28;20418;-64
2023/07/02 05:19:04;;;;;;;23.45;8.15;;;13.60;99.90;;;;;;5035062;28;20045;-65
2023/07/02 05:21:30;;;;;;;21.38;8.80;;;13.50;99.90;;;;;;5034933;28;20041;-65
2023/07/02 05:23:55;;;;;;;25.05;8.85;;;13.50;99.90;;;;;;5051472;28;20119;-65
2023/07/02 05:26:21;;;;;;;21.48;8.45;;;13.50;99.90;;;;;;5068191;28;20056;-65
2023/07/02 05:28:48;;;;;;;22.13;8.90;;;13.50;99.90;;;;;;5068062;28;20044;-65
2023/07/02 05:31:13;;;;;;;23.55;9.45;;;13.50;99.90;;;;;;5051220;28;20127;-65
2023/07/02 05:33:39;;;;;;;34.38;9.32;;;13.50;99.90;;;;;;5051599;28;20144;-65
2023/07/02 05:36:05;;;;;;;27.67;8.85;;;13.60;99.90;;;;;;5052155;28;20082;-65
2023/07/02 05:38:31;;;;;;;21.27;8.75;;;13.70;99.90;;;;;;5036548;28;20526;-65
2023/07/02 05:40:57;;;;;;;24.85;8.20;;;13.70;99.90;;;;;;5050975;28;20427;-65
2023/07/02 05:43:22;;;;;;;26.70;8.85;;;13.80;99.90;;;;;;5051271;28;20375;-65
2023/07/02 05:45:51;;;;;;;25.00;9.70;;;13.80;99.90;;;;;;5052165;28;20052;-66
2023/07/02 05:48:16;;;;;;;22.20;8.82;;;13.90;99.90;;;;;;5034266;28;20079;-66
2023/07/02 05:50:42;;;;;;;22.02;8.98;;;14.00;99.90;;;;;;5051878;28;20077;-65
2023/07/02 05:53:09;;;;;;;26.67;8.20;;;14.10;99.90;;;;;;5050811;28;20045;-65
2023/07/02 05:55:35;;;;;;;26.02;8.60;;;14.20;99.90;;;;;;5067524;28;20052;-65
2023/07/02 05:58:02;;;;;;;23.80;8.77;;;14.20;99.90;;;;;;5051650;28;20410;-66
2023/07/02 06:00:29;;;;;;;24.30;8.98;;;14.30;99.90;;;;;;5050586;28;20569;-66
2023/07/02 06:02:54;;;;;;;27.55;8.43;;;14.30;99.90;;;;;;5050926;28;20048;-66
2023/07/02 06:05:20;;;;;;;22.65;8.00;;;14.40;99.90;;;;;;5033934;28;20414;-66
2023/07/02 06:07:46;;;;;;;19.25;7.85;;;14.50;99.90;;;;;;5050686;28;20044;-66
2023/07/02 06:10:12;;;;;;;22.38;8.57;;;14.60;99.90;;;;;;5050791;28;20446;-66
2023/07/02 06:12:38;;;;;;;24.42;9.20;;;14.60;99.90;;;;;;5033877;28;20534;-66
2023/07/02 06:15:04;;;;;;;26.38;9.05;;;14.70;99.90;;;;;;5050227;28;20099;-66
2023/07/02 06:17:30;;;;;;;26.95;8.65;;;14.80;99.90;;;;;;5050633;28;20059;-66
2023/07/02 06:19:57;;;;;;;23.15;8.43;;;14.80;99.90;;;;;;5050552;28;20037;-66
2023/07/02 06:22:23;;;;;;;20.05;7.63;;;14.90;99.90;;;;;;5051548;28;20552;-67
2023/07/02 06:24:49;;;;;;;25.58;8.25;;;14.90;99.90;;;;;;5033732;28;20044;-66
2023/07/02 06:27:14;;;;;;;22.80;8.48;;;15.00;99.90;;;;;;5050572;28;20045;-66
2023/07/02 06:29:40;;;;;;;21.08;7.65;;;15.10;99.90;;;;;;5049794;28;20510;-66
2023/07/02 06:32:06;;;;;;;19.85;8.88;;;15.10;99.90;;;;;;5050265;28;20048;-66
2023/07/02 06:34:32;;;;;;;20.80;8.23;;;15.20;99.90;;;;;;5050298;28;20453;-66
2023/07/02 06:36:58;;;;;;;25.30;7.75;;;15.20;99.90;;;;;;5049884;28;20048;-66
2023/07/02 06:39:23;;;;;;;23.95;7.93;;;15.30;99.90;;;;;;5016968;28;20101;-66
2023/07/02 06:41:49;;;;;;;23.63;7.90;;;15.40;99.90;;;;;;5049804;28;20526;-67
2023/07/02 06:44:15;;;;;;;21.08;7.53;;;15.50;99.90;;;;;;5033448;28;20553;-66
2023/07/02 06:46:41;;;;;;;17.42;7.82;;;15.70;99.90;;;;;;5049706;28;20041;-67
2023/07/02 06:49:07;;;;;;;21.13;8.00;;;15.80;99.90;;;;;;5049897;28;20037;-66
2023/07/02 06:51:34;;;;;;;23.67;8.20;;;15.90;99.90;;;;;;5049946;28;20429;-66
2023/07/02 06:53:59;;;;;;;22.10;7.22;;;16.00;99.90;;;;;;5049873;28;20067;-66
2023/07/02 06:56:25;;;;;;;20.85;8.20;;;16.00;99.90;;;;;;5032859;28;20490;-66
2023/07/02 06:58:51;;;;;;;18.65;7.50;;;16.10;99.90;;;;;;5049223;28;20049;-67
2023/07/02 07:01:17;;;;;;;23.10;8.50;;;16.10;99.90;;;;;;5049524;28;20076;-67
2023/07/02 07:03:42;;;;;;;21.27;7.05;;;16.10;99.90;;;;;;5049577;28;20437;-67
2023/07/02 07:06:08;;;;;;;21.15;6.85;;;16.10;99.90;;;;;;5033044;28;20548;-66
2023/07/02 07:08:38;;;;;;;19.77;7.38;;;16.20;99.90;;;;;;5049567;28;20127;-66
2023/07/02 07:11:04;;;;;;;21.88;8.00;;;16.20;99.90;;;;;;5032810;28;20048;-67
2023/07/02 07:13:30;;;;;;;23.70;7.32;;;16.20;99.90;;;;;;5049399;28;20052;-67
2023/07/02 07:15:55;;;;;;;19.75;7.47;;;16.20;99.90;;;;;;5049341;28;20036;-66
2023/07/02 07:18:21;;;;;;;20.98;6.18;;;16.20;99.90;;;;;;5049240;28;20497;-66
2023/07/02 07:20:47;;;;;;;20.88;7.90;;;16.30;99.90;;;;;;5049179;28;20079;-66
2023/07/02 07:23:13;;;;;;;19.98;7.43;;;16.30;99.90;;;;;;5049051;28;20045;-68
2023/07/02 07:25:38;;;;;;;19.17;6.22;;;16.30;99.90;;;;;;5050514;28;20045;-67
2023/07/02 07:28:04;;;;;;;14.10;6.05;;;16.30;99.90;;;;;;5048762;28;20131;-66
2023/07/02 07:30:30;;;;;;;15.10;5.95;;;16.30;99.90;;;;;;5050502;28;20120;-66
2023/07/02 07:32:56;;;;;;;17.85;5.68;;;16.20;99.90;;;;;;5032370;28;20498;-67
2023/07/02 07:35:22;;;;;;;19.60;6.50;;;16.20;99.90;;;;;;5048968;28;20048;-67
2023/07/02 07:37:48;;;;;;;14.07;5.68;;;16.20;99.90;;;;;;5048835;28;20048;-66
2023/07/02 07:40:14;;;;;;;17.88;5.90;;;16.20;99.90;;;;;;5048945;28;20037;-67
2023/07/02 07:42:42;;;;;;;21.55;6.53;;;16.20;99.90;;;;;;5048943;28;20494;-67
2023/07/02 07:45:10;;;;;;;13.75;6.22;;;16.20;99.90;;;;;;5032693;28;20045;-66
2023/07/02 07:47:35;;;;;;;13.55;5.70;;;16.40;99.90;;;;;;5032129;28;20041;-66
2023/07/02 07:50:01;;;;;;;16.35;5.88;;;16.50;99.90;;;;;;5032416;28;20206;-67
2023/07/02 07:52:27;;;;;;;14.95;5.43;;;16.70;99.90;;;;;;5032175;28;20045;-67
2023/07/02 07:54:53;;;;;;;19.88;5.82;;;16.90;99.90;;;;;;5048977;28;20128;-67
2023/07/02 07:57:18;;;;;;;15.35;6.07;;;17.10;99.90;;;;;;5032249;28;20079;-68
2023/07/02 07:59:44;;;;;;;12.70;5.97;;;17.10;99.90;;;;;;5032103;28;20049;-66
2023/07/02 08:02:10;;;;;;;15.07;5.53;;;17.20;99.90;;;;;;5048662;28;20079;-67
2023/07/02 08:04:36;;;;;;;17.63;5.90;;;17.30;99.90;;;;;;5048917;28;20055;-67
2023/07/02 08:07:04;;;;;;;12.75;6.40;;;17.30;99.90;;;;;;5032188;28;20044;-67
2023/07/02 08:09:29;;;;;;;12.27;5.30;;;17.50;99.90;;;;;;5048697;28;20578;-67
2023/07/02 08:11:55;;;;;;;11.65;5.82;;;17.60;99.90;;;;;;5048757;28;20075;-67
2023/07/02 08:14:21;;;;;;;10.98;5.47;;;17.70;99.90;;;;;;5048797;28;20048;-67
2023/07/02 08:16:47;;;;;;;17.02;5.82;;;17.60;99.90;;;;;;5048644;28;20048;-66
2023/07/02 08:19:13;;;;;;;11.23;5.38;;;17.40;99.90;;;;;;5032248;28;20599;-67
2023/07/02 08:21:39;;;;;;;16.73;5.30;;;17.30;99.90;;;;;;5048590;28;20087;-67
2023/07/02 08:24:06;;;;;;;15.65;5.20;;;17.40;99.90;;;;;;5048510;28;20048;-66
2023/07/02 08:26:32;;;;;;;12.70;5.20;;;17.50;99.90;;;;;;5048582;28;20048;-67
2023/07/02 08:28:57;;;;;;;11.85;4.55;;;17.80;99.90;;;;;;5048092;28;20044;-66
2023/07/02 08:31:23;;;;;;;16.13;4.40;;;17.90;99.90;;;;;;5048694;28;20052;-66
2023/07/02 08:33:49;;;;;;;14.13;4.10;;;17.70;99.90;;;;;;5051897;28;20045;-66
2023/07/02 08:36:14;;;;;;;10.57;3.72;;;17.70;99.90;;;;;;5052459;28;20106;-67
2023/07/02 08:38:42;;;;;;;10.85;4.30;;;17.70;99.90;;;;;;5051945;28;20110;-66
2023/07/02 08:41:08;;;;;;;9.88;4.00;;;17.80;99.90;;;;;;5052250;28;20049;-66
2023/07/02 08:43:35;;;;;;;11.85;4.00;;;17.90;99.90;;;;;;5052355;28;20037;-66
2023/07/02 08:46:01;;;;;;;14.93;4.30;;;17.80;99.90;;;;;;5052121;28;20128;-67
2023/07/02 08:48:29;;;;;;;11.48;4.72;;;17.70;99.90;;;;;;5052377;28;20044;-68
2023/07/02 08:50:55;;;;;;;12.07;3.90;;;17.50;99.90;;;;;;5053602;28;20165;-67
2023/07/02 08:53:29;;;;;;;8.70;3.40;;;17.40;99.90;;;;;;5052234;28;20052;-66
2023/07/02 08:55:56;;;;;;;11.30;3.85;;;17.30;99.90;;;;;;5052051;28;20479;-66
2023/07/02 08:58:22;;;;;;;11.20;3.40;;;17.30;99.90;;;;;;5051698;28;20041;-65
2023/07/02 09:01:13;;;;;;;11.63;3.20;;;17.30;99.90;;;;;;5052166;28;20406;-67
2023/07/02 09:03:40;;;;;;;10.52;3.50;;;17.40;99.90;;;;;;5051733;28;20585;-67
2023/07/02 09:06:07;;;;;;;7.57;3.63;;;17.40;99.90;;;;;;5052088;28;20041;-67
2023/07/02 09:08:36;;;;;;;7.18;3.60;;;17.50;99.90;;;;;;5051617;28;20048;-66
2023/07/02 09:11:12;;;;;;;7.78;3.33;;;17.60;99.90;;;;;;5051593;28;20560;-66
2023/07/02 09:13:49;;;;;;;7.20;3.42;;;17.50;99.90;;;;;;5051478;28;20059;-66
2023/07/02 09:16:22;;;;;;;6.75;3.25;;;17.40;99.90;;;;;;5051624;28;20048;-67
2023/07/02 09:19:02;;;;;;;8.52;3.83;;;17.40;99.90;;;;;;5034856;28;20119;-66
2023/07/02 09:21:48;;;;;;;12.75;4.40;;;17.30;99.90;;;;;;5051843;28;20118;-67
2023/07/02 09:24:24;;;;;;;12.55;4.03;;;17.20;99.90;;;;;;5050694;28;20095;-66
2023/07/02 09:26:54;;;;;;;9.23;3.60;;;17.20;99.90;;;;;;5051818;28;20123;-66
2023/07/02 09:29:32;;;;;;;9.77;3.80;;;17.30;99.90;;;;;;5051156;28;20280;-66
2023/07/02 09:31:59;;;;;;;8.13;3.53;;;17.30;99.90;;;;;;5034775;28;20106;-66
2023/07/02 09:34:32;;;;;;;10.15;3.60;;;17.30;99.90;;;;;;5051217;28;20044;-66
2023/07/02 09:36:59;;;;;;;9.50;4.05;;;17.40;99.90;;;;;;5051014;28;20045;-66
2023/07/02 09:39:32;;;;;;;7.32;3.60;;;17.50;99.90;;;;;;5037737;28;20053;-66
2023/07/02 09:42:05;;;;;;;8.32;3.65;;;17.50;99.90;;;;;;5038187;28;20147;-66
2023/07/02 09:44:33;;;;;;;8.80;3.60;;;17.70;99.90;;;;;;5054365;28;20051;-66
2023/07/02 09:47:07;;;;;;;10.13;3.65;;;18.00;99.90;;;;;;5054263;28;20098;-66
2023/07/02 09:49:37;;;;;;;13.90;4.60;;;18.40;99.90;;;;;;5037672;28;20090;-67
2023/07/02 09:52:08;;;;;;;11.10;4.10;;;18.70;99.90;;;;;;5054436;28;20040;-67
2023/07/02 09:54:35;;;;;;;10.95;4.05;;;18.90;99.90;;;;;;5053871;28;20095;-66
2023/07/02 09:57:01;;;;;;;11.02;4.65;;;19.20;99.90;;;;;;5037865;28;20394;-66
2023/07/02 09:59:27;;;;;;;14.43;4.82;;;19.00;99.90;;;;;;5037379;28;20037;-66
2023/07/02 10:01:53;;;;;;;10.98;4.20;;;18.80;99.90;;;;;;5037357;28;20472;-67
2023/07/02 10:04:21;;;;;;;9.90;4.20;;;18.60;99.90;;;;;;5053879;28;20124;-67
2023/07/02 10:06:52;;;;;;;10.60;4.05;;;18.60;99.90;;;;;;5053954;28;20048;-66
2023/07/02 10:09:19;;;;;;;14.20;4.30;;;18.80;99.90;;;;;;5053665;28;20552;-68
2023/07/02 10:11:45;;;;;;;9.30;4.18;;;18.90;99.90;;;;;;5037352;28;20060;-67
2023/07/02 10:14:11;;;;;;;10.95;4.40;;;18.80;99.90;;;;;;5053805;28;20481;-66
2023/07/02 10:16:50;;;;;;;11.02;4.43;;;18.70;99.90;;;;;;5036998;28;20533;-66
2023/07/02 10:19:16;;;;;;;8.65;4.32;;;18.50;99.90;;;;;;5053908;28;20041;-66
2023/07/02 10:21:42;;;;;;;12.90;5.05;;;18.40;99.90;;;;;;5053625;28;20441;-66
2023/07/02 10:24:15;;;;;;;10.35;4.20;;;18.40;99.90;;;;;;5054130;28;20393;-67
2023/07/02 10:26:58;;;;;;;9.68;3.83;;;18.20;99.90;;;;;;5071517;28;20044;-67
2023/07/02 10:29:25;;;;;;;11.75;4.70;;;18.00;99.90;;;;;;5053167;28;20514;-66
2023/07/02 10:31:52;;;;;;;10.93;4.60;;;18.00;99.90;;;;;;5036815;28;20037;-66
2023/07/02 10:34:48;;;;;;;12.30;4.88;;;18.10;99.90;;;;;;5037003;28;20076;-66
2023/07/02 10:37:13;;;;;;;12.55;4.60;;;18.20;99.90;;;;;;5020100;28;20052;-66
2023/07/02 10:39:40;;;;;;;11.15;4.30;;;18.20;99.90;;;;;;5033059;28;20525;-66
2023/07/02 10:42:10;;;;;;;12.50;4.10;;;18.10;99.90;;;;;;5033358;28;20044;-66
2023/07/02 10:44:56;;;;;;;10.65;4.10;;;18.00;99.90;;;;;;5000684;28;20036;-66
2023/07/02 10:47:21;;;;;;;11.77;5.03;;;17.90;99.90;;;;;;5033237;28;20106;-67
2023/07/02 10:49:47;;;;;;;9.55;4.03;;;17.90;99.90;;;;;;5033087;28;20045;-67
2023/07/02 10:52:13;;;;;;;12.85;3.97;;;17.90;99.90;;;;;;5033123;28;20068;-66
2023/07/02 10:54:46;;;;;;;10.45;3.67;;;17.90;99.90;;;;;;5032398;28;20072;-67
2023/07/02 10:57:20;;;;;;;11.82;4.18;;;17.90;99.90;;;;;;5032995;28;20068;-66
2023/07/02 10:59:46;;;;;;;7.78;4.30;;;17.80;99.90;;;;;;5032814;28;20040;-66
2023/07/02 11:02:12;;;;;;;10.57;4.25;;;18.00;99.90;;;;;;5032897;28;20048;-68
2023/07/02 11:04:38;;;;;;;12.52;4.80;;;18.40;99.90;;;;;;5033003;28;20052;-67
2023/07/02 11:07:04;;;;;;;12.63;4.72;;;18.70;99.90;;;;;;5033183;28;20033;-67
2023/07/02 11:09:30;;;;;;;10.25;4.38;;;18.90;99.90;;;;;;5033027;28;20063;-66
2023/07/02 11:11:58;;;;;;;12.27;4.43;;;18.80;99.90;;;;;;5050571;28;20579;-66
2023/07/02 11:14:32;;;;;;;9.55;4.63;;;18.80;99.90;;;;;;5016595;28;20109;-67
2023/07/02 11:16:59;;;;;;;8.27;3.80;;;18.60;99.90;;;;;;5033022;28;20051;-68
2023/07/02 11:19:25;;;;;;;28.27;5.30;;;18.40;99.90;;;;;;5049450;28;20052;-67
2023/07/02 11:21:53;;;;;;;10.30;4.55;;;18.20;99.90;;;;;;5032581;28;20037;-66
2023/07/02 11:24:28;;;;;;;13.48;4.68;;;18.20;99.90;;;;;;5032670;28;20509;-66
2023/07/02 11:26:54;;;;;;;10.50;4.18;;;18.30;99.90;;;;;;5032729;28;20379;-67
2023/07/02 11:29:19;;;;;;;10.00;4.50;;;18.40;99.90;;;;;;5032687;28;20494;-67
2023/07/02 11:31:45;;;;;;;12.93;4.03;;;18.50;99.90;;;;;;5032719;28;20704;-66
2023/07/02 11:34:15;;;;;;;10.57;4.10;;;18.50;99.90;;;;;;5032534;28;20509;-66
2023/07/02 11:36:41;;;;;;;10.15;4.25;;;18.30;99.90;;;;;;5015631;28;20051;-66
2023/07/02 11:39:07;;;;;;;10.60;4.15;;;18.20;99.90;;;;;;5032095;28;20052;-66
2023/07/02 11:41:40;;;;;;;11.52;4.43;;;18.10;99.90;;;;;;5048770;28;20055;-66
2023/07/02 11:44:06;;;;;;;11.07;4.20;;;18.00;99.90;;;;;;5049006;28;20076;-67
2023/07/02 11:46:32;;;;;;;11.73;4.78;;;18.00;99.90;;;;;;5032639;28;20138;-66
2023/07/02 11:49:00;;;;;;;10.77;4.40;;;18.00;99.90;;;;;;5032352;28;20047;-67
2023/07/02 11:51:26;;;;;;;11.82;4.78;;;18.00;99.90;;;;;;5032351;28;20490;-66
2023/07/02 11:53:51;;;;;;;12.38;4.63;;;18.00;99.90;;;;;;5032571;28;20047;-67
2023/07/02 11:56:17;;;;;;;13.27;4.72;;;17.90;99.90;;;;;;5048757;28;20107;-67
2023/07/02 11:58:43;;;;;;;8.60;4.00;;;17.80;99.90;;;;;;5048759;28;20072;-66
2023/07/02 12:01:09;;;;;;;10.30;3.97;;;17.80;99.90;;;;;;5049095;28;20055;-67
2023/07/02 12:03:34;;;;;;;9.35;4.07;;;17.80;99.90;;;;;;5032114;28;20530;-67
2023/07/02 12:06:00;;;;;;;11.07;3.95;;;17.90;99.90;;;;;;5049383;28;20037;-67
2023/07/02 12:08:26;;;;;;;15.23;4.13;;;18.00;99.90;;;;;;5036521;28;20041;-67
2023/07/02 12:10:52;;;;;;;12.93;3.85;;;18.20;99.90;;;;;;5053054;28;20040;-67
2023/07/02 12:13:17;;;;;;;10.52;3.65;;;18.20;99.90;;;;;;5052953;28;20120;-67
2023/07/02 12:15:43;;;;;;;9.88;3.63;;;18.20;99.90;;;;;;5052627;28;20384;-67
2023/07/02 12:18:10;;;;;;;10.15;4.13;;;18.10;99.90;;;;;;5035930;28;20089;-68
2023/07/02 12:20:35;;;;;;;11.35;3.63;;;18.00;99.90;;;;;;5052718;28;20044;-68
2023/07/02 12:23:01;;;;;;;9.45;4.10;;;17.90;99.90;;;;;;5052573;28;20044;-67
2023/07/02 12:25:27;;;;;;;10.65;3.67;;;17.90;99.90;;;;;;5052618;28;20044;-67
2023/07/02 12:27:53;;;;;;;10.95;3.42;;;18.00;99.90;;;;;;5052485;28;20041;-67
2023/07/02 12:30:19;;;;;;;8.82;3.15;;;18.30;99.90;;;;;;5052776;28;20049;-67
2023/07/02 12:32:48;;;;;;;8.25;3.67;;;18.50;99.90;;;;;;5052333;28;20067;-67
2023/07/02 12:35:14;;;;;;;8.45;3.72;;;18.70;99.90;;;;;;5035821;28;20116;-68
2023/07/02 12:37:45;;;;;;;9.00;3.35;;;19.10;99.90;;;;;;5052221;28;20529;-66